createdAt,value
2022-07-30T00:00:55.774Z,38.30
2022-07-30T00:05:59.014Z,39.00
2022-07-30T00:11:02.195Z,38.20
2022-07-30T00:16:07.658Z,38.20
2022-07-30T00:21:11.171Z,39.20
2022-07-30T00:26:23.190Z,38.30
2022-07-30T00:31:27.874Z,38.30
2022-07-30T00:36:31.143Z,39.40
2022-07-30T00:41:34.362Z,38.30
2022-07-30T00:46:40.265Z,38.30
2022-07-30T00:51:43.786Z,39.40
2022-07-30T00:56:48.087Z,38.40
2022-07-30T01:01:52.713Z,38.40
2022-07-30T01:06:55.887Z,39.20
2022-07-30T01:12:00.223Z,38.50
2022-07-30T01:17:05.953Z,38.50
2022-07-30T01:22:15.841Z,39.10
2022-07-30T01:27:23.996Z,39.60
2022-07-30T01:32:28.853Z,40.30
2022-07-30T01:37:34.869Z,38.40
2022-07-30T01:42:41.197Z,39.30
2022-07-30T01:47:46.444Z,39.50
2022-07-30T01:52:51.438Z,39.10
2022-07-30T01:57:57.236Z,39.10
2022-07-30T02:03:00.585Z,39.70
2022-07-30T02:08:11.998Z,38.70
2022-07-30T02:13:22.057Z,39.80
2022-07-30T02:18:31.983Z,40.10
2022-07-30T02:23:38.100Z,40.00
2022-07-30T02:28:46.439Z,39.60
2022-07-30T02:33:52.065Z,40.00
2022-07-30T02:38:55.865Z,39.30
2022-07-30T02:44:01.512Z,39.00
2022-07-30T02:49:06.436Z,39.50
2022-07-30T02:54:12.661Z,39.10
2022-07-30T02:59:19.050Z,39.10
2022-07-30T03:04:23.073Z,39.40
2022-07-30T03:09:27.327Z,39.10
2022-07-30T03:14:52.489Z,39.10
2022-07-30T03:19:57.021Z,39.80
2022-07-30T03:25:00.918Z,39.80
2022-07-30T03:30:06.457Z,39.80
2022-07-30T03:35:16.998Z,40.70
2022-07-30T03:40:21.461Z,40.30
2022-07-30T03:45:26.533Z,40.20
2022-07-30T03:50:31.221Z,41.00
2022-07-30T03:55:35.027Z,40.90
2022-07-30T04:00:40.377Z,40.60
2022-07-30T04:05:43.600Z,41.10
2022-07-30T04:10:46.916Z,40.40
2022-07-30T04:16:35.020Z,40.30
2022-07-30T04:21:25.623Z,41.50
2022-07-30T04:26:30.495Z,40.80
2022-07-30T04:31:40.724Z,40.50
2022-07-30T04:36:45.134Z,40.90
2022-07-30T04:41:49.442Z,40.50
2022-07-30T04:46:54.583Z,40.70
2022-07-30T04:51:58.740Z,41.20
2022-07-30T04:57:02.560Z,40.90
2022-07-30T05:02:10.298Z,40.60
2022-07-30T05:07:15.062Z,41.90
2022-07-30T05:12:18.232Z,41.30
2022-07-30T05:17:22.782Z,41.00
2022-07-30T05:22:27.658Z,41.80
2022-07-30T05:27:30.836Z,41.20
2022-07-30T05:32:35.381Z,41.30
2022-07-30T05:37:39.225Z,41.90
2022-07-30T05:42:42.372Z,41.30
2022-07-30T05:47:48.245Z,41.50
2022-07-30T05:52:51.671Z,42.30
2022-07-30T05:57:54.900Z,41.90
2022-07-30T06:02:59.412Z,42.20
2022-07-30T06:08:02.505Z,43.00
2022-07-30T06:13:05.686Z,42.30
2022-07-30T06:18:10.309Z,42.60
2022-07-30T06:23:13.767Z,42.90
2022-07-30T06:28:39.692Z,42.50
2022-07-30T06:33:43.174Z,42.60
2022-07-30T06:38:46.317Z,42.90
2022-07-30T06:43:50.970Z,42.40
2022-07-30T06:48:55.563Z,42.60
2022-07-30T06:53:58.937Z,43.30
2022-07-30T06:59:02.175Z,42.90
2022-07-30T07:04:06.975Z,43.00
2022-07-30T07:09:10.555Z,43.80
2022-07-30T07:14:13.720Z,43.10
2022-07-30T07:20:01.277Z,42.90
2022-07-30T07:24:41.538Z,42.70
2022-07-30T07:30:01.468Z,42.40
2022-07-30T07:35:10.256Z,42.10
2022-07-30T07:40:14.252Z,42.30
2022-07-30T07:45:17.510Z,42.20
2022-07-30T07:50:22.903Z,42.10
2022-07-30T07:55:26.226Z,41.90
2022-07-30T08:00:29.629Z,41.60
2022-07-30T08:06:01.222Z,41.50
2022-07-30T08:10:57.497Z,40.90
2022-07-30T08:16:00.991Z,41.00
2022-07-30T08:21:05.780Z,40.50
2022-07-30T08:26:08.961Z,40.10
2022-07-30T08:31:12.246Z,40.20
2022-07-30T08:36:16.728Z,40.40
2022-07-30T08:41:21.434Z,39.60
2022-07-30T08:46:26.445Z,39.70
2022-07-30T08:51:31.278Z,39.30
2022-07-30T08:56:35.496Z,39.10
2022-07-30T09:01:38.672Z,38.90
2022-07-30T09:06:43.202Z,37.70
2022-07-30T09:11:46.430Z,36.90
2022-07-30T09:16:57.818Z,37.20
2022-07-30T09:22:03.263Z,35.30
2022-07-30T09:27:06.867Z,36.00
2022-07-30T09:32:10.510Z,36.20
2022-07-30T09:37:20.367Z,35.60
2022-07-30T09:42:25.028Z,34.10
2022-07-30T09:47:32.080Z,34.70
2022-07-30T09:52:44.033Z,33.60
2022-07-30T09:57:58.806Z,33.80
2022-07-30T10:03:12.669Z,33.20
2022-07-30T10:08:41.273Z,33.80
2022-07-30T10:13:45.848Z,31.60
2022-07-30T10:18:49.810Z,32.70
2022-07-30T10:23:55.596Z,32.70
2022-07-30T10:29:02.198Z,31.50
2022-07-30T10:34:06.122Z,31.20
2022-07-30T10:39:17.003Z,30.70
2022-07-30T10:44:49.037Z,29.50
2022-07-30T10:50:12.049Z,29.90
2022-07-30T10:55:17.607Z,28.70
2022-07-30T11:00:21.073Z,28.20
2022-07-30T11:05:44.988Z,28.30
2022-07-30T11:10:50.337Z,29.00
2022-07-30T11:15:59.734Z,28.90
2022-07-30T11:21:17.129Z,28.30
2022-07-30T11:27:01.770Z,27.00
2022-07-30T11:32:29.748Z,26.40
2022-07-30T11:37:56.794Z,26.70
2022-07-30T11:43:34.841Z,24.80
2022-07-30T11:48:42.921Z,23.50
2022-07-30T11:53:47.030Z,25.30
2022-07-30T11:58:50.905Z,26.00
2022-07-30T12:03:56.885Z,25.00
2022-07-30T12:09:00.312Z,24.20
2022-07-30T12:14:04.739Z,24.60
2022-07-30T12:19:09.868Z,24.80
2022-07-30T12:24:13.727Z,24.40
2022-07-30T12:29:18.277Z,23.80
2022-07-30T12:34:24.979Z,23.50
2022-07-30T12:39:28.633Z,22.80
2022-07-30T12:44:44.559Z,23.30
2022-07-30T12:49:50.286Z,21.80
2022-07-30T12:55:05.647Z,22.50
2022-07-30T13:00:10.090Z,21.90
2022-07-30T13:05:14.708Z,22.20
2022-07-30T13:10:18.922Z,21.10
2022-07-30T13:15:23.046Z,21.70
2022-07-30T13:20:27.570Z,21.30
2022-07-30T13:25:38.778Z,20.50
2022-07-30T13:30:43.740Z,21.10
2022-07-30T13:35:48.313Z,21.10
2022-07-30T13:40:52.098Z,20.60
2022-07-30T13:45:59.835Z,21.70
2022-07-30T13:51:06.328Z,21.10
2022-07-30T13:56:12.399Z,20.50
2022-07-30T14:01:18.146Z,20.60
2022-07-30T14:06:23.081Z,20.60
2022-07-30T14:11:26.259Z,19.60
2022-07-30T14:16:44.791Z,19.90
2022-07-30T14:21:50.250Z,20.50
2022-07-30T14:26:58.025Z,19.90
2022-07-30T14:32:01.632Z,20.10
2022-07-30T14:37:06.405Z,19.90
2022-07-30T14:42:12.797Z,18.90
2022-07-30T14:47:16.814Z,19.40
2022-07-30T14:52:21.367Z,19.70
2022-07-30T14:57:24.574Z,19.50
2022-07-30T15:02:27.860Z,19.90
2022-07-30T15:07:34.573Z,19.80
2022-07-30T15:12:38.105Z,19.10
2022-07-30T15:17:41.422Z,19.90
2022-07-30T15:22:46.214Z,19.30
2022-07-30T15:27:49.381Z,18.80
2022-07-30T15:32:54.354Z,19.30
2022-07-30T15:37:59.157Z,18.80
2022-07-30T15:43:02.304Z,18.50
2022-07-30T15:48:11.714Z,18.70
2022-07-30T15:53:29.847Z,18.90
2022-07-30T15:58:33.615Z,18.20
2022-07-30T16:03:36.854Z,18.60
2022-07-30T16:08:41.394Z,18.10
2022-07-30T16:13:44.571Z,17.80
2022-07-30T16:18:47.822Z,17.90
2022-07-30T16:23:53.756Z,17.70
2022-07-30T16:28:56.904Z,17.10
2022-07-30T16:34:00.019Z,17.70
2022-07-30T16:39:05.100Z,17.20
2022-07-30T16:44:08.256Z,16.80
2022-07-30T16:49:11.579Z,16.90
2022-07-30T16:54:16.228Z,17.00
2022-07-30T16:59:20.031Z,16.80
2022-07-30T17:04:23.214Z,17.10
2022-07-30T17:09:27.996Z,17.00
2022-07-30T17:14:39.749Z,16.80
2022-07-30T17:19:43.060Z,17.10
2022-07-30T17:24:47.582Z,17.20
2022-07-30T17:29:50.938Z,17.00
2022-07-30T17:34:54.977Z,17.30
2022-07-30T17:40:28.494Z,17.40
2022-07-30T17:45:23.288Z,17.30
2022-07-30T17:50:26.475Z,17.50
2022-07-30T17:55:31.003Z,17.70
2022-07-30T18:00:38.932Z,17.80
2022-07-30T18:05:42.209Z,17.80
2022-07-30T18:10:46.724Z,17.50
2022-07-30T18:15:49.950Z,17.60
2022-07-30T18:20:53.150Z,17.80
2022-07-30T18:25:57.748Z,17.90
2022-07-30T18:31:00.976Z,17.80
2022-07-30T18:36:04.545Z,17.90
2022-07-30T18:41:09.099Z,18.30
2022-07-30T18:46:12.330Z,18.40
2022-07-30T18:51:16.235Z,18.60
2022-07-30T18:56:21.026Z,18.90
2022-07-30T19:01:24.297Z,19.10
2022-07-30T19:06:27.606Z,19.20
2022-07-30T19:11:32.253Z,19.40
2022-07-30T19:16:35.985Z,19.90
2022-07-30T19:21:39.725Z,19.90
2022-07-30T19:26:44.258Z,19.80
2022-07-30T19:31:47.461Z,19.80
2022-07-30T19:36:50.717Z,19.70
2022-07-30T19:41:55.288Z,19.90
2022-07-30T19:46:58.709Z,20.50
2022-07-30T19:52:22.459Z,20.40
2022-07-30T19:57:45.692Z,21.00
2022-07-30T20:02:51.403Z,20.90
2022-07-30T20:07:54.709Z,20.90
2022-07-30T20:13:00.587Z,21.00
2022-07-30T20:18:09.673Z,21.30
2022-07-30T20:23:14.106Z,21.30
2022-07-30T20:28:18.784Z,21.60
2022-07-30T20:33:26.816Z,21.90
2022-07-30T20:38:46.939Z,21.90
2022-07-30T20:43:54.957Z,22.50
2022-07-30T20:48:58.356Z,22.50
2022-07-30T20:54:01.716Z,22.10
2022-07-30T20:59:07.312Z,22.50
2022-07-30T21:04:10.997Z,23.10
2022-07-30T21:09:29.726Z,23.00
2022-07-30T21:14:58.174Z,23.20
2022-07-30T21:20:01.381Z,23.90
2022-07-30T21:25:08.276Z,23.50
2022-07-30T21:30:13.946Z,23.70
2022-07-30T21:35:17.262Z,24.90
2022-07-30T21:40:24.842Z,23.80
2022-07-30T21:45:38.028Z,24.30
2022-07-30T21:50:42.523Z,25.00
2022-07-30T21:55:53.049Z,24.60
2022-07-30T22:01:08.342Z,24.80
2022-07-30T22:06:19.916Z,25.60
2022-07-30T22:11:23.198Z,25.00
2022-07-30T22:16:27.988Z,25.10
2022-07-30T22:21:31.314Z,25.60
2022-07-30T22:26:34.462Z,25.30
2022-07-30T22:31:39.591Z,25.30
2022-07-30T22:36:45.597Z,25.90
2022-07-30T22:41:48.937Z,25.70
2022-07-30T22:46:56.121Z,25.90
2022-07-30T22:52:08.750Z,26.70
2022-07-30T22:57:23.528Z,26.60
2022-07-30T23:02:28.333Z,26.80
2022-07-30T23:07:38.734Z,26.90
2022-07-30T23:12:43.608Z,27.00
2022-07-30T23:17:48.746Z,27.00
2022-07-30T23:22:52.511Z,27.30
2022-07-30T23:27:55.900Z,26.90
2022-07-30T23:33:00.416Z,26.90
2022-07-30T23:38:03.582Z,27.30
2022-07-30T23:43:06.957Z,26.90
2022-07-30T23:48:11.615Z,26.90
2022-07-30T23:53:14.827Z,27.80
2022-07-30T23:58:18.533Z,27.40
